Currently 46°F in Fallbrook, California, USA
46°F
49°F / 46°F
calm
0.00"
Thursday, February 2, 2023 5:40 AM PST

Fallbrook, California Weather Summary
Last 36 Hours

Temperature Winds Hourly Humidity Dewpoint
Time Report Norm Report Norm Max Gusts Precip. Rpt. Norm Rpt. Norm Pressure
1Thu 05:40 AM  46.5°F  50°F  calm  1 mph  none  0.00"  49%  76%  28°F  43°F  N/A
3Thu 05:29 AM  46.3°F  51°F  calm  1 mph  none  ----  49%  76%  27°F  43°F  N/A
Thu 05:00 AM  47.3°F  51°F  calm  1 mph  7 mph  0.00"  48%  75%  28°F  43°F  N/A
Thu 04:00 AM  48.2°F  51°F  1 mph NE  1 mph  none  0.00"  46%  76%  28°F  43°F  N/A
Thu 03:00 AM  47.8°F  51°F  calm  1 mph  3 mph  0.00"  51%  76%  30°F  44°F  N/A
Thu 02:00 AM  48.3°F  52°F  calm  1 mph  3 mph  0.00"  52%  76%  31°F  44°F  N/A
Thu 01:00 AM  47.4°F  52°F  calm  1 mph  none  0.00"  58%  76%  33°F  44°F  N/A
2Thu 12:11 AM  48.6°F  52°F  calm  1 mph  none  ----  61%  76%  35°F  45°F  N/A
Thu 12:00 AM  48.5°F  53°F  calm  1 mph  none  0.00"  63%  77%  36°F  45°F  N/A
Wed 11:00 PM  47.9°F  53°F  calm  1 mph  none  0.00"  69%  78%  38°F  46°F  N/A
Wed 10:00 PM  49.5°F  53°F  calm  1 mph  3 mph  0.00"  66%  78%  38°F  47°F  N/A
Wed 09:00 PM  50.0°F  54°F  calm  calm  none  0.00"  62%  78%  37°F  47°F  N/A
Wed 08:00 PM  52.7°F  55°F  calm  calm  none  0.00"  55%  78%  36°F  48°F  N/A
Wed 07:00 PM  53.7°F  56°F  calm  1 mph  none  0.00"  50%  77%  35°F  48°F  N/A
Wed 06:00 PM  55.0°F  57°F  calm  1 mph  none  0.00"  51%  75%  37°F  49°F  N/A
Wed 05:00 PM  59.2°F  60°F  calm  1 mph  6 mph  0.00"  50%  69%  40°F  50°F  N/A
Wed 04:00 PM  63.5°F  64°F  3 mph SW  2 mph  7 mph  0.00"  43%  62%  40°F  50°F  N/A
Wed 03:00 PM  66.4°F  66°F  3 mph SW  3 mph  7 mph  0.00"  37%  59%  39°F  51°F  N/A
Wed 02:00 PM  68.3°F  67°F  calm  3 mph  4 mph  0.00"  29%  57%  33°F  50°F  N/A
Wed 01:00 PM  67.2°F  67°F  calm  3 mph  9 mph  0.00"  19%  56%  22°F  50°F  N/A
Wed 12:00 PM  64.9°F  66°F  4 mph NW  3 mph  12 mph  0.00"  23%  57%  25°F  49°F  N/A
Wed 11:00 AM  62.7°F  64°F  7 mph NE  2 mph  11 mph  0.00"  23%  60%  23°F  49°F  N/A
Wed 10:00 AM  59.2°F  61°F  3 mph E  2 mph  9 mph  0.00"  28%  65%  25°F  48°F  N/A
Wed 09:00 AM  55.3°F  56°F  3 mph SW  1 mph  10 mph  0.00"  30%  70%  23°F  47°F  N/A
Wed 08:00 AM  51.7°F  52°F  5 mph E  1 mph  16 mph  0.00"  32%  74%  22°F  44°F  N/A
Wed 07:00 AM  49.8°F  50°F  9 mph SE  1 mph  19 mph  0.00"  32%  75%  20°F  42°F  N/A
Wed 06:00 AM  49.4°F  50°F  8 mph W  1 mph  13 mph  0.00"  33%  75%  20°F  43°F  N/A
Wed 05:00 AM  50.8°F  51°F  5 mph W  1 mph  17 mph  0.00"  30%  75%  19°F  43°F  N/A
Wed 04:00 AM  50.9°F  51°F  8 mph SE  1 mph  16 mph  0.00"  30%  75%  19°F  43°F  N/A
Wed 03:00 AM  51.1°F  51°F  8 mph S  1 mph  17 mph  0.00"  32%  75%  21°F  44°F  N/A
Wed 02:00 AM  51.0°F  52°F  8 mph SE  1 mph  13 mph  0.00"  33%  75%  21°F  44°F  N/A
Wed 01:00 AM  51.1°F  52°F  6 mph W  1 mph  15 mph  0.00"  32%  76%  21°F  44°F  N/A
Wed 12:00 AM  51.3°F  53°F  3 mph SW  1 mph  9 mph  0.00"  35%  76%  23°F  45°F  N/A
Tue 11:00 PM  48.8°F  53°F  5 mph W  1 mph  7 mph  0.00"  40%  77%  24°F  46°F  N/A
Tue 10:00 PM  50.3°F  53°F  calm  1 mph  5 mph  0.00"  36%  78%  23°F  46°F  N/A
Tue 09:00 PM  52.2°F  54°F  4 mph E  1 mph  7 mph  0.00"  33%  78%  22°F  47°F  N/A
Tue 08:00 PM  53.4°F  55°F  4 mph NE  1 mph  9 mph  0.00"  34%  77%  24°F  47°F  N/A
Tue 07:00 PM  55.3°F  56°F  4 mph NE  1 mph  11 mph  0.00"  33%  76%  26°F  48°F  N/A
Tue 06:00 PM  57.1°F  57°F  4 mph NW  1 mph  10 mph  0.00"  29%  74%  24°F  49°F  N/A

  1. Current weather data. No green row appears if the current weather data is also the high or low for the current day.
  2. High temperature for the current day.
  3. Low temperature for the current day.

The Fallbrook weather pages are a service of WeatherCurrents. Fallbrook, California is located in northern San Diego County, close to I15 and Camp Pendleton, and is home to ranches, avocado and citrus groves, and plant nurseries.
Copyright ©2023  WeatherCurrents. All rights reserved. - Submit questions and comments - Privacy Policy

This page automatically refreshes every 10 minutes.